Time;durP1;ratioP1;P1;durP2;ratioP2;P2;SDS_P1;SDS_P2;PMS_P1;PMS_P2;Temp;Humidity;BMP_temperature;BMP_pressure;BME280_temperature;BME280_humidity;BME280_pressure;Samples;Min_cycle;Max_cycle;Signal;HPM_P1;HPM_P2
2022/08/03 04:00:43;;;;;;;4.07;3.30;;;15.90;99.90;;;;;;5811745;23;20054;-70
2022/08/03 04:03:10;;;;;;;4.35;3.90;;;16.00;99.90;;;;;;4954680;28;20058;-71
2022/08/03 04:11:13;;;;;;;4.45;3.70;;;16.00;99.90;;;;;;4957256;28;20048;-71
2022/08/03 04:13:44;;;;;;;3.97;3.53;;;15.90;99.90;;;;;;4957233;28;20501;-71
2022/08/03 04:16:13;;;;;;;5.53;3.92;;;16.00;99.90;;;;;;4957650;28;20480;-71
2022/08/03 04:18:40;;;;;;;3.90;3.50;;;16.00;99.90;;;;;;4956968;28;20039;-70
2022/08/03 04:21:10;;;;;;;5.78;3.80;;;16.10;99.90;;;;;;4955219;28;20186;-71
2022/08/03 04:23:41;;;;;;;5.15;3.45;;;16.10;99.90;;;;;;4956960;28;20476;-71
2022/08/03 04:26:10;;;;;;;5.13;3.55;;;16.20;99.90;;;;;;4956953;28;20040;-71
2022/08/03 04:28:40;;;;;;;4.22;3.70;;;16.30;99.90;;;;;;4956778;28;20035;-71
2022/08/03 04:31:05;;;;;;;6.32;3.78;;;16.30;99.90;;;;;;4956545;28;20074;-70
2022/08/03 04:33:33;;;;;;;4.63;3.88;;;16.30;99.90;;;;;;4956785;28;20043;-73
2022/08/03 04:36:03;;;;;;;5.05;3.42;;;16.30;99.90;;;;;;4955292;28;20043;-72
2022/08/03 04:38:31;;;;;;;4.22;3.60;;;16.30;99.90;;;;;;4956685;28;20095;-73
2022/08/03 04:40:59;;;;;;;5.60;4.00;;;16.40;99.90;;;;;;4956671;28;20043;-71
2022/08/03 04:43:26;;;;;;;4.70;3.78;;;16.40;99.90;;;;;;4956835;28;20131;-71
2022/08/03 04:45:53;;;;;;;4.70;3.45;;;16.40;99.90;;;;;;4955517;28;20107;-70
2022/08/03 04:48:19;;;;;;;4.35;3.78;;;16.40;99.90;;;;;;4956474;28;20032;-71
2022/08/03 04:50:46;;;;;;;4.93;3.55;;;16.40;99.90;;;;;;4956496;28;20042;-70
2022/08/03 04:53:12;;;;;;;5.15;3.70;;;16.50;99.90;;;;;;4956833;28;20040;-73
2022/08/03 04:55:37;;;;;;;5.13;3.70;;;16.50;99.90;;;;;;4954641;28;20035;-71
2022/08/03 04:58:03;;;;;;;4.15;3.75;;;16.50;99.90;;;;;;4956364;28;20034;-70
2022/08/03 05:00:29;;;;;;;4.80;4.32;;;16.60;99.90;;;;;;4955998;28;20397;-70
2022/08/03 05:02:55;;;;;;;6.75;4.07;;;16.60;99.90;;;;;;4956388;28;20494;-70
2022/08/03 05:05:21;;;;;;;7.93;3.80;;;16.60;99.90;;;;;;4955335;28;20048;-71
2022/08/03 05:07:46;;;;;;;5.72;3.70;;;16.60;99.90;;;;;;4956363;28;20042;-71
2022/08/03 05:10:13;;;;;;;4.93;3.65;;;16.60;99.90;;;;;;4956300;28;20039;-71
2022/08/03 05:12:39;;;;;;;5.93;3.70;;;16.70;99.90;;;;;;4956053;28;20043;-71
2022/08/03 05:15:06;;;;;;;7.80;3.90;;;16.70;99.90;;;;;;4956039;28;20038;-72
2022/08/03 05:17:35;;;;;;;6.35;3.60;;;16.70;99.90;;;;;;4955764;28;20489;-71
2022/08/03 05:20:03;;;;;;;5.15;3.95;;;16.70;99.90;;;;;;4956059;28;20115;-70
2022/08/03 05:22:28;;;;;;;7.05;3.90;;;16.80;99.90;;;;;;4955756;28;20044;-71
2022/08/03 05:24:54;;;;;;;5.68;3.90;;;16.90;99.90;;;;;;4956021;28;20035;-71
2022/08/03 05:27:19;;;;;;;6.80;3.90;;;17.00;99.90;;;;;;4955345;28;20040;-71
2022/08/03 05:29:46;;;;;;;4.93;4.00;;;17.10;99.90;;;;;;4956053;28;20072;-71
2022/08/03 05:32:11;;;;;;;7.40;3.65;;;17.20;99.90;;;;;;4954182;28;20058;-70
2022/08/03 05:34:38;;;;;;;4.43;4.00;;;17.20;99.90;;;;;;4954259;28;20036;-71
2022/08/03 05:37:03;;;;;;;6.78;3.90;;;17.30;99.90;;;;;;4956097;28;20036;-70
2022/08/03 05:39:29;;;;;;;7.72;4.30;;;17.40;99.90;;;;;;4954599;28;20035;-71
2022/08/03 05:41:54;;;;;;;7.20;4.10;;;17.40;99.90;;;;;;4955360;28;20040;-72
2022/08/03 05:44:20;;;;;;;4.55;3.55;;;17.60;99.90;;;;;;4955832;28;20040;-73
2022/08/03 05:46:46;;;;;;;6.25;3.72;;;17.70;99.90;;;;;;4955869;28;20050;-72
2022/08/03 05:49:12;;;;;;;7.40;3.90;;;17.80;99.90;;;;;;4949059;28;20498;-73
2022/08/03 05:51:37;;;;;;;4.43;3.35;;;17.90;99.90;;;;;;4944646;28;20047;-74
2022/08/03 05:54:03;;;;;;;4.50;3.47;;;17.90;99.90;;;;;;4945621;28;20374;-73
2022/08/03 05:56:28;;;;;;;4.55;3.40;;;18.00;99.90;;;;;;4946519;28;20411;-75
2022/08/03 05:58:54;;;;;;;5.97;3.33;;;18.10;99.90;;;;;;4944037;28;20040;-73
2022/08/03 06:01:20;;;;;;;6.70;3.30;;;18.20;99.90;;;;;;4945288;28;20036;-73
2022/08/03 06:03:47;;;;;;;5.82;3.78;;;18.30;99.90;;;;;;4945526;28;20047;-73
2022/08/03 06:06:12;;;;;;;5.63;3.35;;;18.30;99.90;;;;;;4944430;28;20036;-75
2022/08/03 06:08:39;;;;;;;3.60;3.17;;;18.40;99.90;;;;;;4946154;28;20061;-73
2022/08/03 06:11:04;;;;;;;5.47;3.03;;;18.50;99.90;;;;;;4945400;28;20047;-73
2022/08/03 06:13:31;;;;;;;5.82;3.15;;;18.50;99.90;;;;;;4945234;28;20063;-81
2022/08/03 06:15:56;;;;;;;4.25;3.22;;;18.60;99.90;;;;;;4945954;28;20569;-72
2022/08/03 06:18:23;;;;;;;4.32;3.50;;;18.70;99.90;;;;;;4949272;28;20032;-71
2022/08/03 06:20:49;;;;;;;4.93;2.92;;;18.80;99.90;;;;;;4957579;28;20076;-72
2022/08/03 06:23:15;;;;;;;7.90;2.95;;;18.80;99.90;;;;;;4958070;28;20485;-72
2022/08/03 06:25:41;;;;;;;3.60;3.20;;;18.90;99.90;;;;;;4959019;28;20094;-71
2022/08/03 06:28:07;;;;;;;5.25;2.65;;;19.00;99.90;;;;;;4957690;28;20035;-71
2022/08/03 06:30:32;;;;;;;3.88;2.83;;;19.10;99.90;;;;;;4958523;28;20055;-72
2022/08/03 06:32:58;;;;;;;4.35;2.92;;;19.20;99.90;;;;;;4958999;28;20032;-72
2022/08/03 06:35:24;;;;;;;4.63;2.92;;;19.30;99.70;;;;;;4958812;28;20051;-73
2022/08/03 06:37:50;;;;;;;3.47;2.80;;;19.40;99.60;;;;;;4959384;28;20446;-72
2022/08/03 06:40:31;;;;;;;4.15;2.88;;;19.50;99.50;;;;;;4959303;28;20087;-72
2022/08/03 06:43:01;;;;;;;3.88;2.70;;;19.80;99.50;;;;;;4959200;28;20032;-72
2022/08/03 06:45:30;;;;;;;5.85;2.88;;;19.80;99.10;;;;;;4959411;28;20822;-71
2022/08/03 06:48:03;;;;;;;4.72;2.78;;;19.90;98.90;;;;;;4959297;28;20047;-72
2022/08/03 06:50:29;;;;;;;5.35;2.83;;;20.10;98.70;;;;;;4958890;28;20044;-73
2022/08/03 06:52:55;;;;;;;6.53;3.33;;;20.20;98.40;;;;;;4959411;28;20036;-72
2022/08/03 06:55:20;;;;;;;4.15;3.10;;;20.40;98.30;;;;;;4958633;28;20490;-72
2022/08/03 06:57:46;;;;;;;5.28;3.08;;;20.40;98.00;;;;;;4959106;28;20059;-72
2022/08/03 07:00:13;;;;;;;5.20;3.28;;;20.50;97.60;;;;;;4958386;28;20498;-73
2022/08/03 07:02:39;;;;;;;4.20;3.03;;;20.70;97.70;;;;;;4957947;28;20036;-72
2022/08/03 07:05:05;;;;;;;4.22;3.00;;;20.90;96.80;;;;;;4958261;28;20032;-72
2022/08/03 07:07:31;;;;;;;4.88;2.90;;;21.20;96.50;;;;;;4958431;28;20551;-73
2022/08/03 07:09:56;;;;;;;4.68;3.00;;;21.30;96.00;;;;;;4958384;28;20044;-72
2022/08/03 07:12:22;;;;;;;4.63;2.88;;;21.50;95.20;;;;;;4958295;28;20055;-72
2022/08/03 07:14:47;;;;;;;5.95;2.70;;;21.80;95.20;;;;;;4958181;28;20036;-72
2022/08/03 07:17:13;;;;;;;7.68;2.85;;;22.00;94.60;;;;;;4958410;28;20031;-75
2022/08/03 07:19:38;;;;;;;4.75;2.90;;;22.20;94.30;;;;;;4958683;28;20043;-73
2022/08/03 07:22:05;;;;;;;4.97;2.70;;;22.40;93.90;;;;;;4957992;28;20039;-73
2022/08/03 07:24:30;;;;;;;4.45;2.45;;;22.60;93.80;;;;;;4958476;28;20035;-72
2022/08/03 07:26:56;;;;;;;8.38;3.00;;;22.80;93.60;;;;;;4957673;28;20379;-72
2022/08/03 07:29:21;;;;;;;3.45;2.90;;;23.00;93.70;;;;;;4958552;28;20051;-72
2022/08/03 07:31:47;;;;;;;3.85;2.70;;;23.20;92.60;;;;;;4958423;28;20489;-72
2022/08/03 07:34:13;;;;;;;6.97;3.15;;;23.40;91.80;;;;;;4957999;28;20046;-78
2022/08/03 07:36:38;;;;;;;4.88;2.67;;;23.50;91.80;;;;;;4957982;28;20028;-70
2022/08/03 07:39:04;;;;;;;4.88;2.78;;;23.70;91.20;;;;;;4957352;28;20443;-72
2022/08/03 07:41:30;;;;;;;4.47;2.60;;;24.00;90.90;;;;;;4958094;28;20094;-77
2022/08/03 07:43:56;;;;;;;4.45;2.97;;;24.20;90.10;;;;;;4957849;28;20099;-72
2022/08/03 07:46:22;;;;;;;7.60;2.60;;;24.50;90.20;;;;;;4960246;28;20043;-71
2022/08/03 07:48:47;;;;;;;4.88;2.88;;;24.70;89.40;;;;;;4956682;28;20042;-71
2022/08/03 07:51:13;;;;;;;7.50;2.60;;;24.80;88.60;;;;;;4957312;28;20040;-72
2022/08/03 07:53:38;;;;;;;5.32;2.72;;;25.10;87.10;;;;;;4956944;28;20032;-72
2022/08/03 07:56:04;;;;;;;7.70;2.75;;;25.10;86.90;;;;;;4957139;28;20074;-71
2022/08/03 07:58:30;;;;;;;7.35;2.50;;;25.20;86.00;;;;;;4955956;28;20031;-72
2022/08/03 08:00:55;;;;;;;4.28;2.50;;;25.60;85.00;;;;;;4948758;28;20039;-72
2022/08/03 08:03:21;;;;;;;5.93;2.80;;;25.90;84.60;;;;;;4958313;28;20072;-76
2022/08/03 08:05:47;;;;;;;4.25;2.80;;;26.10;83.60;;;;;;4957218;28;20091;-72
2022/08/03 08:08:12;;;;;;;5.82;2.80;;;26.40;82.50;;;;;;4957381;28;20032;-72
2022/08/03 08:10:38;;;;;;;4.47;2.85;;;26.60;81.60;;;;;;4956897;28;20040;-73
2022/08/03 08:13:04;;;;;;;5.63;2.50;;;26.60;82.00;;;;;;4957242;28;20027;-72
2022/08/03 08:15:30;;;;;;;6.50;2.42;;;26.90;80.80;;;;;;4958148;28;20038;-72
2022/08/03 08:17:57;;;;;;;4.90;2.40;;;27.00;79.90;;;;;;4957795;28;20131;-72
2022/08/03 08:20:26;;;;;;;3.92;2.40;;;27.10;79.30;;;;;;4957589;28;20043;-71
2022/08/03 08:22:51;;;;;;;7.60;2.40;;;27.30;80.00;;;;;;4957632;28;20064;-72
2022/08/03 08:25:17;;;;;;;4.68;2.80;;;27.60;79.00;;;;;;4957638;28;20072;-72
2022/08/03 08:27:45;;;;;;;4.80;2.45;;;27.90;77.90;;;;;;4956984;28;20067;-72
2022/08/03 08:30:12;;;;;;;5.65;2.65;;;28.10;76.00;;;;;;4956985;28;20044;-73
2022/08/03 08:32:38;;;;;;;6.07;2.88;;;28.30;76.00;;;;;;4957383;28;20557;-73
2022/08/03 08:35:05;;;;;;;5.72;2.80;;;28.60;75.00;;;;;;4956834;28;20032;-74
2022/08/03 08:37:31;;;;;;;5.60;2.40;;;28.80;75.70;;;;;;4956736;28;20028;-74
2022/08/03 08:39:57;;;;;;;5.15;2.67;;;28.60;73.70;;;;;;4955855;28;20031;-70
2022/08/03 08:42:24;;;;;;;4.60;2.38;;;28.60;73.30;;;;;;4957094;28;20083;-72
2022/08/03 08:44:49;;;;;;;7.22;2.45;;;28.50;74.60;;;;;;4954848;28;20040;-78
2022/08/03 08:47:18;;;;;;;3.78;2.70;;;28.60;73.00;;;;;;4956684;28;20044;-70
2022/08/03 08:49:45;;;;;;;4.32;2.53;;;28.80;72.90;;;;;;4955992;28;20130;-71
2022/08/03 08:52:12;;;;;;;4.28;2.45;;;29.10;72.80;;;;;;4945245;28;20044;-71
2022/08/03 08:54:40;;;;;;;3.67;2.28;;;29.10;73.00;;;;;;4948183;28;20504;-70
2022/08/03 08:57:06;;;;;;;5.90;2.40;;;29.20;72.30;;;;;;4956476;28;20050;-70
2022/08/03 08:59:33;;;;;;;3.40;2.15;;;29.30;71.90;;;;;;4956358;28;20537;-71
2022/08/03 09:01:59;;;;;;;4.47;2.63;;;29.70;70.80;;;;;;4956068;28;20063;-71
2022/08/03 09:04:27;;;;;;;7.43;2.03;;;29.90;70.10;;;;;;4954585;28;20040;-70
2022/08/03 09:06:52;;;;;;;6.32;2.20;;;30.00;69.20;;;;;;4956158;28;20043;-69
2022/08/03 09:09:18;;;;;;;10.18;2.50;;;30.10;68.80;;;;;;4956272;28;20379;-71
2022/08/03 09:11:43;;;;;;;4.85;2.10;;;30.40;68.00;;;;;;4956113;28;20490;-71
2022/08/03 09:14:10;;;;;;;5.63;2.42;;;30.50;67.30;;;;;;4955661;28;20397;-70
2022/08/03 09:16:35;;;;;;;3.95;2.40;;;30.60;68.10;;;;;;4956018;28;20043;-70
2022/08/03 09:19:12;;;;;;;11.50;2.85;;;30.80;68.20;;;;;;4956028;28;20040;-71
2022/08/03 09:21:38;;;;;;;3.40;2.25;;;30.90;67.90;;;;;;4956136;28;20046;-70
2022/08/03 09:24:05;;;;;;;4.28;2.15;;;30.90;66.10;;;;;;4955707;28;20039;-70
2022/08/03 09:26:33;;;;;;;4.88;2.20;;;30.90;66.20;;;;;;4956197;28;20050;-71
2022/08/03 09:29:01;;;;;;;2.25;1.63;;;30.90;64.50;;;;;;4955799;28;20087;-70
2022/08/03 09:31:41;;;;;;;3.15;1.92;;;31.00;63.80;;;;;;4955867;28;20039;-71
2022/08/03 09:34:14;;;;;;;3.10;1.77;;;31.40;63.50;;;;;;4954377;28;20031;-70
2022/08/03 09:36:45;;;;;;;3.55;2.00;;;31.60;62.70;;;;;;4956107;28;20036;-71
2022/08/03 09:39:16;;;;;;;5.65;2.05;;;31.80;62.20;;;;;;4955860;28;20035;-70
2022/08/03 09:41:44;;;;;;;3.00;1.85;;;31.90;62.30;;;;;;4955919;28;20179;-70
2022/08/03 09:44:10;;;;;;;5.53;1.60;;;32.00;60.00;;;;;;4955336;28;20134;-70
2022/08/03 09:46:49;;;;;;;3.38;1.75;;;32.00;60.30;;;;;;4956076;28;20131;-71
2022/08/03 09:49:15;;;;;;;2.80;1.55;;;32.10;60.70;;;;;;4955763;28;20023;-73
2022/08/03 09:51:41;;;;;;;4.25;1.77;;;32.40;59.90;;;;;;4958325;28;20030;-73
2022/08/03 09:54:07;;;;;;;3.63;1.70;;;32.60;59.10;;;;;;4958928;28;20402;-74
2022/08/03 09:56:39;;;;;;;3.05;1.88;;;32.80;58.50;;;;;;4959130;28;20042;-76
2022/08/03 09:59:05;;;;;;;2.95;1.83;;;32.70;58.50;;;;;;4957851;28;20382;-74
2022/08/03 10:01:35;;;;;;;2.92;2.20;;;32.70;59.10;;;;;;4950275;28;20054;-73
2022/08/03 10:04:01;;;;;;;4.47;2.22;;;32.70;57.80;;;;;;4947839;28;20127;-73
2022/08/03 10:06:26;;;;;;;4.00;1.92;;;32.70;57.60;;;;;;4949087;28;20130;-73
2022/08/03 10:09:15;;;;;;;2.15;1.58;;;32.70;59.00;;;;;;4949951;28;20039;-72
2022/08/03 10:11:42;;;;;;;4.15;2.00;;;32.70;57.50;;;;;;4947889;28;20098;-72
2022/08/03 10:14:10;;;;;;;2.47;1.90;;;32.80;57.30;;;;;;4949333;28;20079;-73
2022/08/03 10:16:37;;;;;;;3.55;1.70;;;32.90;57.00;;;;;;4950149;28;20043;-72
2022/08/03 10:19:04;;;;;;;2.55;1.60;;;33.10;57.10;;;;;;4948388;28;20024;-72
2022/08/03 10:21:34;;;;;;;1.58;1.48;;;33.40;56.90;;;;;;4947877;28;20094;-74
2022/08/03 10:24:03;;;;;;;2.38;1.73;;;33.50;55.90;;;;;;4948028;28;20116;-74
2022/08/03 10:26:31;;;;;;;3.13;1.77;;;33.60;56.80;;;;;;4948773;28;20753;-74
2022/08/03 10:28:59;;;;;;;3.45;1.77;;;33.60;55.60;;;;;;4949438;28;20087;-75
2022/08/03 10:31:30;;;;;;;2.95;1.85;;;33.60;54.90;;;;;;4947906;28;20036;-73
2022/08/03 10:33:58;;;;;;;3.60;1.90;;;33.70;54.80;;;;;;4947541;28;20028;-74
2022/08/03 10:36:29;;;;;;;4.25;1.80;;;33.70;55.00;;;;;;4948470;28;20110;-74
2022/08/03 10:38:55;;;;;;;3.33;1.77;;;33.60;55.10;;;;;;4946730;28;20443;-78
2022/08/03 10:41:24;;;;;;;4.10;2.15;;;33.80;55.40;;;;;;4937713;28;20072;-75
2022/08/03 10:43:57;;;;;;;4.65;2.17;;;34.20;54.80;;;;;;4939178;28;20119;-73
2022/08/03 10:46:25;;;;;;;2.30;1.88;;;34.50;54.30;;;;;;4939197;28;20051;-72
2022/08/03 10:48:52;;;;;;;3.25;1.90;;;34.30;54.20;;;;;;4937518;29;20032;-73
2022/08/03 10:51:18;;;;;;;3.53;1.88;;;34.20;55.20;;;;;;4938972;28;20036;-73
2022/08/03 10:53:44;;;;;;;7.45;2.10;;;34.00;53.90;;;;;;4939401;28;20119;-73
2022/08/03 10:59:45;;;;;;;7.53;2.10;;;34.00;54.20;;;;;;4943486;28;20086;-72
2022/08/03 11:02:12;;;;;;;2.85;1.63;;;34.00;53.50;;;;;;4945700;28;20064;-72
2022/08/03 11:04:39;;;;;;;2.95;1.70;;;34.10;53.90;;;;;;4946927;28;20032;-72
2022/08/03 11:07:24;;;;;;;7.20;2.08;;;34.20;54.20;;;;;;4939849;28;20040;-74
2022/08/03 11:09:55;;;;;;;3.15;1.70;;;34.60;54.60;;;;;;4938670;29;20050;-74
2022/08/03 11:12:30;;;;;;;3.72;1.60;;;34.70;54.10;;;;;;4938572;29;20032;-73
2022/08/03 11:14:58;;;;;;;2.63;1.75;;;34.70;54.20;;;;;;4938708;28;20040;-74
2022/08/03 11:17:23;;;;;;;3.85;1.85;;;34.80;53.70;;;;;;4938760;28;20040;-78
2022/08/03 11:19:51;;;;;;;2.10;1.67;;;34.90;52.90;;;;;;4937307;29;20040;-75
2022/08/03 11:22:17;;;;;;;4.63;1.92;;;34.80;53.00;;;;;;4938947;28;20040;-75
2022/08/03 11:24:45;;;;;;;4.30;1.83;;;35.30;53.40;;;;;;4938499;28;20036;-74
2022/08/03 11:27:13;;;;;;;2.30;1.50;;;35.60;51.30;;;;;;4938522;29;20036;-76
2022/08/03 11:29:55;;;;;;;2.78;1.48;;;35.60;50.20;;;;;;4938692;28;20043;-75
2022/08/03 11:32:55;;;;;;;3.35;1.60;;;35.90;50.10;;;;;;4936742;29;20443;-73
2022/08/03 11:35:30;;;;;;;2.80;1.60;;;36.10;49.90;;;;;;4937272;29;20044;-78
2022/08/03 11:37:58;;;;;;;1.92;1.48;;;36.00;49.20;;;;;;4938738;29;20036;-76
2022/08/03 11:40:38;;;;;;;2.75;1.50;;;35.90;49.40;;;;;;4936891;28;20032;-78
2022/08/03 11:43:23;;;;;;;1.65;1.55;;;35.90;50.00;;;;;;4936813;28;20446;-72
2022/08/03 11:46:02;;;;;;;2.60;1.50;;;36.20;50.30;;;;;;4938299;28;20040;-70
2022/08/03 11:48:33;;;;;;;2.95;1.45;;;36.60;49.20;;;;;;4938147;29;20494;-75
2022/08/03 11:51:04;;;;;;;1.75;1.65;;;36.40;49.50;;;;;;4938063;29;20044;-73
2022/08/03 11:53:30;;;;;;;4.60;1.70;;;36.80;49.00;;;;;;4937535;28;20032;-72
2022/08/03 11:55:59;;;;;;;2.15;1.50;;;37.00;49.20;;;;;;4938138;28;20075;-74
2022/08/03 11:58:26;;;;;;;5.75;2.00;;;37.00;47.70;;;;;;4937889;29;20499;-72
2022/08/03 12:00:52;;;;;;;3.25;1.70;;;36.40;49.50;;;;;;4937276;29;20075;-71
2022/08/03 12:03:19;;;;;;;2.75;1.77;;;36.00;49.40;;;;;;4936762;29;20501;-71
2022/08/03 12:05:52;;;;;;;1.63;1.52;;;36.00;49.80;;;;;;4937582;29;20047;-72
2022/08/03 12:08:28;;;;;;;2.63;1.45;;;36.50;49.60;;;;;;4938117;28;20485;-72
2022/08/03 12:10:55;;;;;;;1.92;1.45;;;36.70;50.10;;;;;;4937091;29;20044;-72
2022/08/03 12:13:22;;;;;;;1.85;1.50;;;37.20;48.90;;;;;;4937613;29;20123;-71
2022/08/03 12:15:57;;;;;;;2.53;1.35;;;37.50;48.40;;;;;;4937734;28;20032;-71
2022/08/03 12:18:24;;;;;;;2.75;1.63;;;37.00;48.30;;;;;;4936213;29;20036;-71
2022/08/03 12:20:51;;;;;;;1.70;1.50;;;37.10;48.40;;;;;;4937570;28;20486;-72
2022/08/03 12:23:18;;;;;;;2.22;1.40;;;36.70;47.10;;;;;;4937663;28;20718;-71
2022/08/03 12:25:45;;;;;;;1.98;1.40;;;36.10;47.90;;;;;;4937447;28;20184;-74
2022/08/03 12:28:15;;;;;;;3.05;1.40;;;36.00;50.00;;;;;;4937523;29;20063;-72
2022/08/03 12:30:42;;;;;;;1.60;1.50;;;36.40;50.00;;;;;;4937348;29;20091;-72
2022/08/03 12:33:21;;;;;;;4.55;1.50;;;36.60;48.10;;;;;;4937630;28;20111;-74
2022/08/03 12:35:49;;;;;;;4.30;1.80;;;36.50;49.10;;;;;;4936850;29;20032;-71
2022/08/03 12:38:20;;;;;;;2.42;1.65;;;36.70;49.10;;;;;;4937394;29;20036;-71
2022/08/03 12:40:58;;;;;;;1.85;1.60;;;36.80;48.20;;;;;;4937205;28;20043;-71
2022/08/03 12:43:24;;;;;;;6.03;2.17;;;37.30;48.60;;;;;;4937301;29;20028;-72
2022/08/03 12:45:50;;;;;;;2.35;1.48;;;37.60;47.00;;;;;;4937047;28;20044;-74
2022/08/03 12:48:15;;;;;;;1.40;1.27;;;38.10;46.00;;;;;;4937321;29;20406;-73
2022/08/03 12:50:41;;;;;;;3.53;1.70;;;38.60;45.50;;;;;;4936984;29;20048;-74
2022/08/03 12:53:09;;;;;;;3.13;1.60;;;38.90;45.20;;;;;;4937313;28;20032;-71
2022/08/03 12:55:37;;;;;;;2.92;1.40;;;38.20;44.00;;;;;;4936884;29;20406;-71
2022/08/03 12:58:09;;;;;;;3.90;1.40;;;38.50;44.90;;;;;;4935346;28;20040;-72
2022/08/03 13:00:35;;;;;;;3.70;1.30;;;38.50;43.60;;;;;;4936436;28;20043;-71
2022/08/03 13:03:04;;;;;;;2.70;1.20;;;38.40;44.70;;;;;;4936940;29;20032;-73
2022/08/03 13:05:31;;;;;;;1.58;1.23;;;38.60;43.90;;;;;;4935339;29;20039;-73
2022/08/03 13:07:57;;;;;;;1.42;1.17;;;38.20;43.60;;;;;;4937067;28;20036;-72
2022/08/03 13:10:29;;;;;;;3.80;1.50;;;37.60;44.40;;;;;;4936787;29;20047;-71
2022/08/03 13:12:57;;;;;;;1.30;1.20;;;38.00;44.40;;;;;;4936928;28;20035;-73
2022/08/03 13:15:25;;;;;;;2.33;1.23;;;38.30;45.50;;;;;;4936778;29;20032;-74
2022/08/03 13:17:51;;;;;;;2.45;1.27;;;38.60;43.20;;;;;;4936904;28;20168;-73
2022/08/03 13:20:16;;;;;;;1.30;1.17;;;38.80;44.80;;;;;;4936665;29;20042;-73
2022/08/03 13:22:46;;;;;;;1.98;1.35;;;38.90;43.30;;;;;;4936754;29;20036;-75
2022/08/03 13:25:11;;;;;;;6.18;1.42;;;38.90;44.00;;;;;;4935721;28;20135;-76
2022/08/03 13:27:37;;;;;;;3.35;1.30;;;38.70;44.20;;;;;;4937068;28;20401;-71
2022/08/03 13:30:03;;;;;;;2.25;1.35;;;39.10;43.00;;;;;;4936508;29;20055;-72
2022/08/03 13:32:29;;;;;;;1.88;1.55;;;39.50;42.70;;;;;;4936705;29;20075;-72
2022/08/03 13:34:54;;;;;;;1.65;1.48;;;39.90;42.90;;;;;;4936014;28;20119;-74
2022/08/03 13:37:20;;;;;;;2.50;1.40;;;40.30;41.40;;;;;;4950072;28;20393;-73
2022/08/03 13:39:45;;;;;;;2.13;1.52;;;40.60;42.20;;;;;;4954114;28;20401;-77
2022/08/03 13:42:11;;;;;;;2.85;1.30;;;41.20;40.10;;;;;;4955989;28;20035;-74
2022/08/03 13:44:37;;;;;;;2.40;1.45;;;41.50;39.80;;;;;;4954168;28;20086;-75
2022/08/03 13:47:03;;;;;;;1.65;1.50;;;42.20;38.60;;;;;;4955985;28;20035;-75
2022/08/03 13:49:29;;;;;;;2.60;1.50;;;42.50;38.70;;;;;;4955833;28;20067;-74
2022/08/03 13:51:55;;;;;;;1.60;1.50;;;42.80;37.60;;;;;;4955539;28;20073;-74
2022/08/03 13:54:21;;;;;;;4.25;1.50;;;42.80;37.80;;;;;;4948619;28;20054;-73
2022/08/03 13:56:52;;;;;;;1.42;1.33;;;42.40;37.50;;;;;;4950600;28;20043;-74
2022/08/03 13:59:22;;;;;;;3.25;1.55;;;42.70;37.00;;;;;;4954997;28;20114;-74
2022/08/03 14:01:49;;;;;;;1.40;1.30;;;42.30;38.20;;;;;;4953808;28;20046;-79
2022/08/03 14:04:15;;;;;;;1.90;1.63;;;42.40;36.50;;;;;;4953370;28;20119;-75
2022/08/03 14:06:40;;;;;;;1.73;1.63;;;42.80;38.80;;;;;;4955634;28;20453;-75
2022/08/03 14:09:06;;;;;;;1.60;1.48;;;43.10;36.80;;;;;;4955777;28;20071;-76
2022/08/03 14:11:32;;;;;;;1.85;1.52;;;42.30;36.80;;;;;;4955237;28;20514;-75
2022/08/03 14:13:58;;;;;;;1.50;1.40;;;42.60;37.40;;;;;;4955442;28;20027;-75
2022/08/03 14:16:23;;;;;;;2.35;1.58;;;42.00;36.80;;;;;;4954667;28;20044;-77
2022/08/03 14:18:49;;;;;;;1.63;1.52;;;42.20;37.30;;;;;;4955387;28;20127;-73
2022/08/03 14:21:15;;;;;;;3.95;1.60;;;43.30;36.10;;;;;;4955212;28;20036;-81
2022/08/03 14:23:40;;;;;;;2.97;1.52;;;44.10;35.70;;;;;;4955838;28;20055;-77
2022/08/03 14:26:06;;;;;;;1.52;1.42;;;43.80;35.90;;;;;;4955441;28;20410;-74
2022/08/03 14:28:32;;;;;;;3.42;1.50;;;44.00;35.90;;;;;;4955429;28;20036;-74
2022/08/03 14:30:58;;;;;;;1.90;1.80;;;45.00;35.70;;;;;;4956127;28;20044;-74
2022/08/03 14:33:24;;;;;;;2.17;1.98;;;45.70;34.00;;;;;;4955478;28;20044;-76
2022/08/03 14:35:50;;;;;;;1.73;1.63;;;45.90;33.70;;;;;;4955252;28;20514;-75
2022/08/03 14:38:16;;;;;;;3.08;1.50;;;45.60;34.10;;;;;;4957040;28;20031;-75
2022/08/03 14:40:42;;;;;;;2.88;1.90;;;45.90;34.60;;;;;;4958593;28;20039;-75
2022/08/03 14:43:08;;;;;;;1.85;1.70;;;46.30;34.50;;;;;;4958538;28;20031;-75
2022/08/03 14:45:33;;;;;;;1.98;1.88;;;46.80;32.80;;;;;;4958170;28;20040;-74
2022/08/03 14:47:59;;;;;;;3.30;2.05;;;47.00;32.70;;;;;;4958507;28;20043;-73
2022/08/03 14:50:27;;;;;;;2.33;2.13;;;47.10;32.00;;;;;;4957924;28;20070;-73
2022/08/03 14:52:53;;;;;;;5.03;2.33;;;47.30;32.10;;;;;;4958425;28;20099;-75
2022/08/03 14:55:18;;;;;;;2.55;2.00;;;48.20;32.50;;;;;;4958279;28;20035;-73
2022/08/03 14:57:44;;;;;;;2.00;1.90;;;47.50;30.70;;;;;;4942793;28;20032;-75
2022/08/03 15:00:10;;;;;;;3.70;2.10;;;47.00;31.10;;;;;;4939841;28;20191;-74
2022/08/03 15:02:35;;;;;;;3.33;2.20;;;47.10;31.40;;;;;;4938785;29;20127;-72
2022/08/03 15:05:01;;;;;;;2.22;2.03;;;45.90;31.80;;;;;;4937083;28;20127;-73
2022/08/03 15:07:27;;;;;;;3.70;2.03;;;46.40;33.60;;;;;;4938955;29;20107;-73
2022/08/03 15:09:52;;;;;;;6.13;2.50;;;47.20;32.00;;;;;;4938886;29;20043;-73
2022/08/03 15:12:18;;;;;;;2.50;2.40;;;47.70;31.50;;;;;;4946423;28;20036;-73
2022/08/03 15:14:43;;;;;;;2.50;2.30;;;48.70;30.00;;;;;;4957645;28;20044;-74
2022/08/03 15:17:09;;;;;;;2.65;2.45;;;49.10;29.70;;;;;;4957625;28;20090;-74
2022/08/03 15:19:34;;;;;;;2.88;2.67;;;48.70;30.20;;;;;;4957341;28;20067;-75
2022/08/03 15:22:00;;;;;;;2.95;2.60;;;49.10;30.00;;;;;;4958076;28;20039;-76
2022/08/03 15:24:25;;;;;;;3.35;2.30;;;49.30;29.50;;;;;;4958187;28;20405;-76
2022/08/03 15:26:51;;;;;;;4.93;2.22;;;48.20;29.90;;;;;;4958172;28;20046;-74
2022/08/03 15:29:17;;;;;;;4.72;2.35;;;48.40;30.70;;;;;;4956303;28;20039;-73
2022/08/03 15:31:42;;;;;;;3.60;2.15;;;47.60;30.20;;;;;;4956974;28;20039;-72
2022/08/03 15:34:10;;;;;;;2.22;2.10;;;47.60;30.80;;;;;;4957232;28;20516;-74
2022/08/03 15:36:36;;;;;;;4.07;2.22;;;47.80;30.60;;;;;;4957685;28;20095;-73
2022/08/03 15:39:01;;;;;;;2.35;2.03;;;48.40;30.90;;;;;;4957341;28;20515;-72
2022/08/03 15:41:27;;;;;;;2.97;2.30;;;47.80;30.30;;;;;;4957922;28;20051;-72
2022/08/03 15:43:52;;;;;;;3.20;2.00;;;48.00;30.00;;;;;;4956897;28;20060;-73
2022/08/03 15:46:18;;;;;;;2.65;2.10;;;47.80;30.90;;;;;;4957532;28;20039;-73
2022/08/03 15:48:44;;;;;;;3.03;2.33;;;47.90;31.30;;;;;;4952464;28;20036;-72
2022/08/03 15:51:10;;;;;;;3.05;2.20;;;48.10;30.50;;;;;;4954961;28;20042;-71
2022/08/03 15:53:36;;;;;;;2.40;2.30;;;47.90;31.20;;;;;;4956090;28;20040;-71
2022/08/03 15:56:02;;;;;;;2.70;2.10;;;48.60;30.20;;;;;;4955909;28;20044;-79
2022/08/03 15:58:29;;;;;;;3.08;2.78;;;48.20;30.20;;;;;;4956056;28;20047;-73
2022/08/03 16:00:58;;;;;;;32.45;29.67;;;48.00;30.80;;;;;;4950807;28;20477;-76
2022/08/03 16:03:24;;;;;;;30.35;27.35;;;47.50;31.40;;;;;;4946911;28;20040;-75
2022/08/03 16:05:50;;;;;;;9.70;8.75;;;47.20;32.60;;;;;;4945594;28;20032;-71
2022/08/03 16:08:16;;;;;;;2.70;1.90;;;46.30;31.20;;;;;;4942256;28;20028;-71
2022/08/03 16:10:41;;;;;;;34.47;31.83;;;46.30;31.60;;;;;;4937615;28;20044;-73
2022/08/03 16:13:07;;;;;;;4.75;2.80;;;46.70;32.30;;;;;;4938050;28;20036;-71
2022/08/03 16:15:33;;;;;;;20.73;18.83;;;46.90;31.70;;;;;;4999949;23;20055;-78
2022/08/03 16:17:58;;;;;;;13.52;11.07;;;46.70;32.10;;;;;;4976760;28;20106;-77
2022/08/03 16:20:24;;;;;;;3.15;2.60;;;46.80;31.40;;;;;;4976185;28;20481;-82
2022/08/03 16:22:50;;;;;;;3.63;2.70;;;47.40;31.60;;;;;;4977429;28;20560;-82
2022/08/03 16:25:16;;;;;;;2.47;2.28;;;47.60;31.90;;;;;;4968053;28;20347;-80
2022/08/03 16:27:42;;;;;;;2.67;2.42;;;47.60;31.30;;;;;;4958141;28;20031;-81
2022/08/03 16:30:10;;;;;;;2.55;1.80;;;47.50;30.30;;;;;;4958692;28;20086;-80
2022/08/03 16:32:38;;;;;;;2.10;2.00;;;47.50;30.20;;;;;;4957431;28;20031;-80
2022/08/03 16:35:04;;;;;;;2.63;1.80;;;46.70;31.00;;;;;;4954254;28;20076;-79
2022/08/03 16:37:30;;;;;;;2.53;1.90;;;45.60;32.20;;;;;;4957846;28;20030;-81
2022/08/03 16:39:56;;;;;;;3.58;1.83;;;45.60;32.70;;;;;;4956391;28;20074;-81
2022/08/03 16:42:21;;;;;;;3.38;1.80;;;45.20;32.70;;;;;;4953854;28;20040;-79
2022/08/03 16:44:47;;;;;;;5.00;1.90;;;43.80;33.10;;;;;;4939643;28;20040;-79
2022/08/03 16:47:13;;;;;;;3.78;1.90;;;42.00;35.00;;;;;;4939157;28;20032;-80
2022/08/03 16:49:38;;;;;;;3.53;1.70;;;40.40;36.80;;;;;;4937000;28;20039;-79
2022/08/03 16:52:04;;;;;;;2.20;1.50;;;39.00;39.00;;;;;;4938972;28;20100;-78
2022/08/03 16:54:32;;;;;;;1.77;1.67;;;38.10;41.50;;;;;;4938290;28;20502;-83